Time;durP1;ratioP1;P1;durP2;ratioP2;P2;SDS_P1;SDS_P2;PMS_P1;PMS_P2;Temp;Humidity;BMP_temperature;BMP_pressure;BME280_temperature;BME280_humidity;BME280_pressure;Samples;Min_cycle;Max_cycle;Signal;HPM_P1;HPM_P2
2023/04/27 00:02:15;;;;;;;62.73;6.87;;;;;;;;;;5074434;28;20908;-69
2023/04/27 00:04:43;;;;;;;62.07;6.77;;;;;;;;;;5074321;28;21001;-70
2023/04/27 00:07:10;;;;;;;64.67;6.70;;;;;;;;;;5074239;28;20803;-69
2023/04/27 00:09:39;;;;;;;62.90;7.10;;;;;;;;;;5073741;28;20470;-69
2023/04/27 00:12:06;;;;;;;61.10;6.23;;;;;;;;;;5074491;28;20448;-69
2023/04/27 00:14:33;;;;;;;62.27;6.77;;;;;;;;;;5074225;28;20479;-70
2023/04/27 00:17:00;;;;;;;63.90;7.00;;;;;;;;;;5074174;28;20451;-69
2023/04/27 00:19:29;;;;;;;62.27;6.63;;;;;;;;;;5073790;28;20554;-69
2023/04/27 00:21:56;;;;;;;68.53;7.63;;;;;;;;;;5073981;28;20452;-69
2023/04/27 00:24:23;;;;;;;62.80;7.60;;;;;;;;;;5073873;28;20463;-69
2023/04/27 00:26:52;;;;;;;60.87;6.70;;;;;;;;;;5074157;28;20952;-69
2023/04/27 00:29:19;;;;;;;64.10;7.70;;;;;;;;;;5073652;28;20467;-69
2023/04/27 00:31:46;;;;;;;62.47;7.50;;;;;;;;;;5073908;28;20451;-70
2023/04/27 00:34:13;;;;;;;64.47;6.73;;;;;;;;;;5073765;28;20896;-69
2023/04/27 00:36:40;;;;;;;64.00;7.50;;;;;;;;;;5073592;28;20447;-69
2023/04/27 00:39:08;;;;;;;67.33;7.40;;;;;;;;;;5073588;28;20478;-70
2023/04/27 00:41:38;;;;;;;60.47;6.33;;;;;;;;;;5073851;28;20832;-69
2023/04/27 00:44:06;;;;;;;65.73;7.43;;;;;;;;;;5073645;28;20944;-69
2023/04/27 00:46:34;;;;;;;61.97;7.00;;;;;;;;;;5073577;28;20482;-70
2023/04/27 00:49:01;;;;;;;68.50;7.30;;;;;;;;;;5073041;28;20474;-69
2023/04/27 00:51:30;;;;;;;62.63;7.27;;;;;;;;;;5073578;28;20451;-70
2023/04/27 00:53:57;;;;;;;64.57;6.97;;;;;;;;;;5073603;28;20490;-69
2023/04/27 00:56:25;;;;;;;62.00;7.20;;;;;;;;;;5073143;28;20566;-68
2023/04/27 00:58:52;;;;;;;64.30;6.67;;;;;;;;;;5073223;28;20451;-70
2023/04/27 01:01:20;;;;;;;62.27;6.57;;;;;;;;;;5073590;28;20841;-70
2023/04/27 01:03:48;;;;;;;61.47;7.03;;;;;;;;;;5073299;28;20455;-70
2023/04/27 01:06:15;;;;;;;65.87;7.87;;;;;;;;;;5073513;28;20496;-70
2023/04/27 01:08:42;;;;;;;64.33;7.43;;;;;;;;;;5072903;28;20504;-70
2023/04/27 01:11:09;;;;;;;62.27;6.30;;;;;;;;;;5073094;28;20448;-70
2023/04/27 01:13:36;;;;;;;61.50;6.40;;;;;;;;;;5073079;28;20451;-70
2023/04/27 01:16:03;;;;;;;63.90;6.77;;;;;;;;;;5071231;28;20502;-71
2023/04/27 01:18:32;;;;;;;62.50;6.67;;;;;;;;;;5072831;28;20454;-70
2023/04/27 01:21:00;;;;;;;62.27;7.13;;;;;;;;;;5072719;28;20960;-69
2023/04/27 01:23:28;;;;;;;62.33;6.97;;;;;;;;;;5072593;28;20447;-70
2023/04/27 01:25:55;;;;;;;68.50;7.10;;;;;;;;;;5072739;28;20450;-70
2023/04/27 01:28:22;;;;;;;62.70;6.30;;;;;;;;;;5072524;28;20827;-70
2023/04/27 01:30:50;;;;;;;63.30;6.30;;;;;;;;;;5072502;28;20475;-70
2023/04/27 01:33:17;;;;;;;61.70;6.03;;;;;;;;;;5072548;28;20981;-70
2023/04/27 01:35:44;;;;;;;62.77;6.90;;;;;;;;;;5072566;28;20475;-70
2023/04/27 01:38:11;;;;;;;62.90;6.13;;;;;;;;;;5072653;28;20447;-70
2023/04/27 01:40:39;;;;;;;64.60;7.17;;;;;;;;;;5072036;28;20464;-71
2023/04/27 01:43:06;;;;;;;61.37;6.00;;;;;;;;;;5072608;28;20454;-70
2023/04/27 01:45:34;;;;;;;60.93;6.10;;;;;;;;;;5072900;28;20469;-70
2023/04/27 01:48:01;;;;;;;62.10;6.73;;;;;;;;;;5072466;28;20479;-70
2023/04/27 01:50:28;;;;;;;62.73;6.77;;;;;;;;;;5071980;28;20528;-70
2023/04/27 01:52:55;;;;;;;61.93;6.80;;;;;;;;;;5072288;28;20449;-70
2023/04/27 01:55:22;;;;;;;62.40;7.13;;;;;;;;;;5071951;28;20537;-70
2023/04/27 01:57:51;;;;;;;62.97;6.70;;;;;;;;;;5072373;28;20470;-70
2023/04/27 02:00:18;;;;;;;64.10;7.60;;;;;;;;;;5071778;28;20472;-69
2023/04/27 02:02:45;;;;;;;62.57;7.13;;;;;;;;;;5072465;28;20458;-70
2023/04/27 02:05:12;;;;;;;63.47;6.80;;;;;;;;;;5072021;28;20940;-70
2023/04/27 02:07:39;;;;;;;61.40;7.30;;;;;;;;;;5072471;28;20450;-70
2023/04/27 02:10:07;;;;;;;63.80;8.10;;;;;;;;;;5071912;28;20469;-70
2023/04/27 02:12:34;;;;;;;65.93;8.30;;;;;;;;;;5071684;28;20453;-70
2023/04/27 02:15:03;;;;;;;62.80;8.53;;;;;;;;;;5071861;28;20483;-70
2023/04/27 02:17:30;;;;;;;62.87;7.40;;;;;;;;;;5072029;28;20444;-71
2023/04/27 02:19:57;;;;;;;60.90;6.67;;;;;;;;;;5071537;28;20463;-70
2023/04/27 02:22:24;;;;;;;63.20;7.53;;;;;;;;;;5072070;28;20460;-70
2023/04/27 02:24:51;;;;;;;62.33;8.20;;;;;;;;;;5071836;28;20832;-70
2023/04/27 02:27:19;;;;;;;63.00;8.03;;;;;;;;;;5072123;28;20443;-70
2023/04/27 02:29:46;;;;;;;63.20;7.60;;;;;;;;;;5071458;28;20481;-71
2023/04/27 02:32:14;;;;;;;62.97;7.30;;;;;;;;;;5071768;28;20455;-70
2023/04/27 02:34:41;;;;;;;62.07;7.70;;;;;;;;;;5071814;28;20457;-71
2023/04/27 02:37:08;;;;;;;62.80;8.20;;;;;;;;;;5071713;28;20485;-70
2023/04/27 02:39:35;;;;;;;63.67;7.43;;;;;;;;;;5071546;28;20467;-70
2023/04/27 02:42:03;;;;;;;61.27;7.43;;;;;;;;;;5071816;28;20444;-70
2023/04/27 02:44:30;;;;;;;63.63;8.37;;;;;;;;;;5071767;28;20884;-70
2023/04/27 02:46:57;;;;;;;62.83;7.97;;;;;;;;;;5071738;28;20739;-70
2023/04/27 02:49:25;;;;;;;62.87;8.67;;;;;;;;;;5071032;28;20467;-70
2023/04/27 02:51:52;;;;;;;62.07;8.20;;;;;;;;;;5072081;28;20453;-70
2023/04/27 02:54:19;;;;;;;64.00;8.63;;;;;;;;;;5071716;28;20448;-70
2023/04/27 02:56:46;;;;;;;64.37;8.90;;;;;;;;;;5071652;28;20494;-70
2023/04/27 02:59:14;;;;;;;63.90;9.03;;;;;;;;;;5071096;28;20474;-70
2023/04/27 03:01:41;;;;;;;65.80;9.37;;;;;;;;;;5071533;28;20804;-70
2023/04/27 03:04:08;;;;;;;62.83;8.57;;;;;;;;;;5071280;28;20448;-70
2023/04/27 03:06:36;;;;;;;64.30;8.73;;;;;;;;;;5071378;28;20448;-70
2023/04/27 03:09:04;;;;;;;63.10;8.57;;;;;;;;;;5071395;28;20475;-71
2023/04/27 03:11:31;;;;;;;63.10;7.87;;;;;;;;;;5071505;28;20458;-70
2023/04/27 03:13:58;;;;;;;64.47;7.70;;;;;;;;;;5071338;28;20452;-70
2023/04/27 03:16:25;;;;;;;62.67;8.30;;;;;;;;;;5071253;28;20508;-70
2023/04/27 03:18:52;;;;;;;64.67;7.77;;;;;;;;;;5071104;28;20846;-71
2023/04/27 03:21:19;;;;;;;64.60;8.37;;;;;;;;;;5071493;28;20451;-71
2023/04/27 03:23:48;;;;;;;61.83;7.77;;;;;;;;;;5072260;28;20465;-71
2023/04/27 03:26:15;;;;;;;63.80;8.40;;;;;;;;;;5075109;28;20439;-70
2023/04/27 03:28:42;;;;;;;62.30;8.50;;;;;;;;;;5074383;28;20447;-69
2023/04/27 03:31:10;;;;;;;62.70;8.00;;;;;;;;;;5074873;28;20440;-71
2023/04/27 03:33:37;;;;;;;61.80;7.13;;;;;;;;;;5075065;28;20470;-70
2023/04/27 03:36:05;;;;;;;61.03;7.07;;;;;;;;;;5075171;28;20534;-70
2023/04/27 03:38:32;;;;;;;61.55;7.60;;;;;;;;;;5074655;28;20477;-70
2023/04/27 03:41:01;;;;;;;61.07;7.40;;;;;;;;;;5074813;28;20208;-70
2023/04/27 03:43:28;;;;;;;61.83;6.87;;;;;;;;;;5074670;28;20455;-70
2023/04/27 03:45:55;;;;;;;62.37;7.53;;;;;;;;;;5074737;28;20443;-70
2023/04/27 03:48:22;;;;;;;65.40;7.00;;;;;;;;;;5074645;28;20447;-70
2023/04/27 03:50:50;;;;;;;64.70;8.00;;;;;;;;;;5074413;28;20470;-70
2023/04/27 03:53:17;;;;;;;62.27;7.10;;;;;;;;;;5074456;28;20490;-69
2023/04/27 03:55:45;;;;;;;60.70;6.73;;;;;;;;;;5074490;28;20851;-70
2023/04/27 03:58:13;;;;;;;63.90;7.90;;;;;;;;;;5074330;28;20881;-70
2023/04/27 04:00:40;;;;;;;64.50;7.40;;;;;;;;;;5074128;28;20480;-70
2023/04/27 04:03:08;;;;;;;63.50;7.20;;;;;;;;;;5074442;28;20974;-70
2023/04/27 04:05:35;;;;;;;62.53;7.53;;;;;;;;;;5074389;28;20449;-71
2023/04/27 04:08:02;;;;;;;62.67;6.90;;;;;;;;;;5074801;28;20448;-70
2023/04/27 04:10:30;;;;;;;62.17;7.00;;;;;;;;;;5073902;28;20837;-70
2023/04/27 04:12:57;;;;;;;61.03;6.77;;;;;;;;;;5074112;28;20451;-71
2023/04/27 04:15:25;;;;;;;63.37;7.10;;;;;;;;;;5074041;28;20451;-71
2023/04/27 04:17:52;;;;;;;62.10;6.83;;;;;;;;;;5074224;28;20449;-70
2023/04/27 04:20:19;;;;;;;64.07;7.90;;;;;;;;;;5073714;28;20467;-71
2023/04/27 04:22:46;;;;;;;65.80;7.50;;;;;;;;;;5074089;28;20444;-70
2023/04/27 04:25:14;;;;;;;61.70;7.33;;;;;;;;;;5074013;28;20459;-69
2023/04/27 04:27:41;;;;;;;62.37;7.13;;;;;;;;;;5074167;28;20526;-70
2023/04/27 04:30:09;;;;;;;62.57;7.30;;;;;;;;;;5073668;28;20475;-70
2023/04/27 04:32:37;;;;;;;61.90;6.80;;;;;;;;;;5074049;28;20455;-70
2023/04/27 04:35:05;;;;;;;62.00;7.07;;;;;;;;;;5073643;28;20473;-70
2023/04/27 04:37:34;;;;;;;62.00;7.50;;;;;;;;;;5073680;28;20570;-69
2023/04/27 04:40:01;;;;;;;64.73;7.60;;;;;;;;;;5073251;28;20471;-70
2023/04/27 04:42:28;;;;;;;62.60;7.27;;;;;;;;;;5073960;28;20451;-70
2023/04/27 04:44:57;;;;;;;63.10;7.27;;;;;;;;;;5073553;28;20455;-70
2023/04/27 04:47:24;;;;;;;64.50;7.30;;;;;;;;;;5073601;28;20882;-70
2023/04/27 04:49:53;;;;;;;65.10;8.30;;;;;;;;;;5073060;28;20478;-70
2023/04/27 04:52:20;;;;;;;61.00;6.07;;;;;;;;;;5073383;28;20447;-70
2023/04/27 04:54:47;;;;;;;62.10;7.00;;;;;;;;;;5073604;28;20895;-70
2023/04/27 04:57:14;;;;;;;62.00;6.80;;;;;;;;;;5073601;28;20512;-70
2023/04/27 04:59:41;;;;;;;63.20;7.27;;;;;;;;;;5073090;28;20910;-70
2023/04/27 05:02:08;;;;;;;63.17;7.77;;;;;;;;;;5073352;28;20477;-70
2023/04/27 05:04:35;;;;;;;63.93;6.80;;;;;;;;;;5073455;28;20454;-70
2023/04/27 05:07:05;;;;;;;62.57;7.20;;;;;;;;;;5073062;28;20944;-70
2023/04/27 05:09:32;;;;;;;66.00;6.77;;;;;;;;;;5072945;28;20541;-70
2023/04/27 05:12:00;;;;;;;64.40;7.73;;;;;;;;;;5073010;28;20458;-69
2023/04/27 05:14:27;;;;;;;64.27;7.10;;;;;;;;;;5073324;28;20458;-70
2023/04/27 05:16:54;;;;;;;65.87;7.20;;;;;;;;;;5072997;28;20479;-70
2023/04/27 05:19:21;;;;;;;64.27;7.77;;;;;;;;;;5072391;28;20479;-70
2023/04/27 05:21:48;;;;;;;64.20;7.50;;;;;;;;;;5073024;28;20443;-70
2023/04/27 05:24:17;;;;;;;60.67;6.50;;;;;;;;;;5072625;28;20455;-69
2023/04/27 05:26:44;;;;;;;66.30;8.60;;;;;;;;;;5072861;28;20445;-70
2023/04/27 05:29:11;;;;;;;62.33;7.50;;;;;;;;;;5072377;28;20999;-70
2023/04/27 05:31:38;;;;;;;62.20;6.60;;;;;;;;;;5072662;28;20444;-69
2023/04/27 05:34:05;;;;;;;66.50;7.20;;;;;;;;;;5072429;28;20461;-70
2023/04/27 05:36:32;;;;;;;62.73;7.23;;;;;;;;;;5072990;28;20582;-69
2023/04/27 05:38:59;;;;;;;64.57;7.60;;;;;;;;;;5072307;28;20469;-70
2023/04/27 05:41:28;;;;;;;62.23;7.37;;;;;;;;;;5072574;28;20470;-71
2023/04/27 05:43:55;;;;;;;66.07;7.80;;;;;;;;;;5072853;28;20451;-71
2023/04/27 05:46:22;;;;;;;64.53;6.80;;;;;;;;;;5071612;28;20964;-70
2023/04/27 05:48:49;;;;;;;65.57;7.47;;;;;;;;;;5072139;28;20445;-71
2023/04/27 05:51:16;;;;;;;62.30;6.80;;;;;;;;;;5072449;28;20475;-71
2023/04/27 05:53:43;;;;;;;61.33;7.00;;;;;;;;;;5072134;28;20954;-68
2023/04/27 05:56:11;;;;;;;62.43;7.13;;;;;;;;;;5071980;28;20454;-70
2023/04/27 05:58:40;;;;;;;62.37;6.57;;;;;;;;;;5071736;28;20964;-70
2023/04/27 06:01:07;;;;;;;61.90;7.23;;;;;;;;;;5072056;28;20455;-67
2023/04/27 06:03:34;;;;;;;62.37;7.30;;;;;;;;;;5072063;28;20940;-68
2023/04/27 06:06:01;;;;;;;62.07;7.00;;;;;;;;;;5072293;28;20537;-67
2023/04/27 06:08:29;;;;;;;68.10;6.80;;;;;;;;;;5071847;28;20487;-67
2023/04/27 06:10:56;;;;;;;62.57;7.17;;;;;;;;;;5071816;28;20506;-68
2023/04/27 06:13:23;;;;;;;68.90;6.90;;;;;;;;;;5072055;28;20451;-68
2023/04/27 06:15:52;;;;;;;64.37;6.70;;;;;;;;;;5071876;28;20456;-68
2023/04/27 06:18:19;;;;;;;62.93;7.10;;;;;;;;;;5071681;28;20485;-67
2023/04/27 06:20:46;;;;;;;65.87;7.97;;;;;;;;;;5071535;28;20482;-69
2023/04/27 06:23:13;;;;;;;64.93;7.63;;;;;;;;;;5071844;28;20533;-68
2023/04/27 06:25:40;;;;;;;62.37;7.00;;;;;;;;;;5071939;28;20442;-68
2023/04/27 06:28:07;;;;;;;62.93;7.30;;;;;;;;;;5071443;28;20443;-68
2023/04/27 06:30:34;;;;;;;64.60;7.10;;;;;;;;;;5071599;28;20456;-69
2023/04/27 06:33:03;;;;;;;62.90;7.80;;;;;;;;;;5071750;28;20970;-68
2023/04/27 06:35:30;;;;;;;65.43;6.83;;;;;;;;;;5071826;28;20457;-68
2023/04/27 06:37:57;;;;;;;63.17;7.13;;;;;;;;;;5071670;28;20850;-68
2023/04/27 06:40:25;;;;;;;61.43;6.87;;;;;;;;;;5071531;28;20510;-68
2023/04/27 06:42:52;;;;;;;64.10;6.60;;;;;;;;;;5071459;28;20447;-68
2023/04/27 06:45:20;;;;;;;63.00;7.67;;;;;;;;;;5071532;28;20447;-68
2023/04/27 06:47:47;;;;;;;63.00;6.43;;;;;;;;;;5071698;28;20502;-69
2023/04/27 06:50:16;;;;;;;65.17;7.50;;;;;;;;;;5071255;28;20471;-68
2023/04/27 06:52:43;;;;;;;63.40;6.73;;;;;;;;;;5071517;28;20928;-68
2023/04/27 06:55:10;;;;;;;63.60;6.63;;;;;;;;;;5071814;28;20458;-69
2023/04/27 06:57:37;;;;;;;61.40;6.07;;;;;;;;;;5072030;28;20490;-68
2023/04/27 07:00:05;;;;;;;62.80;6.30;;;;;;;;;;5074418;28;20485;-68
2023/04/27 07:02:32;;;;;;;62.17;6.70;;;;;;;;;;5075584;28;20443;-68
2023/04/27 07:04:59;;;;;;;61.67;6.73;;;;;;;;;;5075623;28;20451;-69
2023/04/27 07:07:28;;;;;;;62.40;6.90;;;;;;;;;;5075400;28;20458;-69
2023/04/27 07:09:55;;;;;;;61.37;6.10;;;;;;;;;;5075030;28;20840;-68
2023/04/27 07:12:22;;;;;;;62.17;6.50;;;;;;;;;;5075316;28;20948;-68
2023/04/27 07:14:50;;;;;;;60.70;5.67;;;;;;;;;;5075361;28;20447;-69
2023/04/27 07:17:17;;;;;;;61.23;5.53;;;;;;;;;;5075277;28;20490;-69
2023/04/27 07:19:44;;;;;;;62.70;6.40;;;;;;;;;;5074861;28;20474;-69
2023/04/27 07:22:11;;;;;;;62.83;6.63;;;;;;;;;;5075056;28;20450;-68
2023/04/27 07:24:40;;;;;;;62.50;6.40;;;;;;;;;;5074896;28;20816;-68
2023/04/27 07:27:07;;;;;;;60.80;5.97;;;;;;;;;;5075226;28;20450;-69
2023/04/27 07:29:36;;;;;;;61.80;6.67;;;;;;;;;;5074836;28;20845;-68
2023/04/27 07:32:05;;;;;;;60.30;5.87;;;;;;;;;;5074933;28;20448;-68
2023/04/27 07:34:33;;;;;;;60.87;5.77;;;;;;;;;;5074874;28;20935;-69
2023/04/27 07:37:00;;;;;;;67.10;6.10;;;;;;;;;;5074723;28;20514;-69
2023/04/27 07:39:27;;;;;;;62.20;5.80;;;;;;;;;;5074715;28;20828;-68
2023/04/27 07:41:57;;;;;;;61.37;6.20;;;;;;;;;;5074843;28;20447;-69
2023/04/27 07:44:24;;;;;;;62.67;6.73;;;;;;;;;;5074742;28;20940;-68
2023/04/27 07:46:53;;;;;;;62.10;5.90;;;;;;;;;;5074745;28;20447;-69
2023/04/27 07:49:20;;;;;;;61.90;6.10;;;;;;;;;;5074191;28;20826;-69
2023/04/27 07:51:48;;;;;;;66.97;6.93;;;;;;;;;;5074775;28;20448;-69
2023/04/27 07:54:15;;;;;;;61.40;6.63;;;;;;;;;;5074786;28;20447;-69
2023/04/27 07:56:42;;;;;;;63.60;5.80;;;;;;;;;;5074554;28;20788;-68
2023/04/27 07:59:11;;;;;;;61.40;5.87;;;;;;;;;;5074212;28;20471;-69
2023/04/27 08:01:38;;;;;;;60.97;6.33;;;;;;;;;;5074412;28;20455;-69
2023/04/27 08:04:05;;;;;;;62.00;6.50;;;;;;;;;;5074313;28;20818;-70
2023/04/27 08:06:32;;;;;;;63.83;6.30;;;;;;;;;;5074530;28;20818;-70
2023/04/27 08:09:00;;;;;;;62.40;6.47;;;;;;;;;;5073393;28;20471;-69
2023/04/27 08:11:28;;;;;;;61.07;6.27;;;;;;;;;;5074181;28;20760;-70
2023/04/27 08:13:55;;;;;;;62.37;6.43;;;;;;;;;;5074206;28;20921;-70
2023/04/27 08:16:23;;;;;;;61.10;6.50;;;;;;;;;;5074158;28;20457;-70
2023/04/27 08:18:51;;;;;;;61.83;6.80;;;;;;;;;;5073554;28;20483;-69
2023/04/27 08:21:18;;;;;;;65.93;6.50;;;;;;;;;;5074300;28;20448;-70
2023/04/27 08:23:45;;;;;;;60.90;6.47;;;;;;;;;;5074082;28;20835;-70
2023/04/27 08:26:15;;;;;;;63.90;6.37;;;;;;;;;;5074268;28;20830;-69
2023/04/27 08:28:42;;;;;;;62.50;6.57;;;;;;;;;;5073481;28;20931;-70
2023/04/27 08:31:09;;;;;;;61.60;6.50;;;;;;;;;;5073784;28;20451;-69
2023/04/27 08:33:37;;;;;;;62.97;6.20;;;;;;;;;;5074096;28;20451;-70
2023/04/27 08:36:05;;;;;;;60.07;5.60;;;;;;;;;;5073957;28;20453;-68
2023/04/27 08:38:34;;;;;;;66.93;6.00;;;;;;;;;;5073503;28;20486;-69
2023/04/27 08:41:01;;;;;;;64.27;5.97;;;;;;;;;;5073838;28;20455;-69
2023/04/27 08:43:32;;;;;;;61.70;6.03;;;;;;;;;;5073561;28;20490;-70
2023/04/27 08:46:00;;;;;;;60.73;6.60;;;;;;;;;;5073937;28;20454;-70
2023/04/27 08:48:27;;;;;;;65.60;6.27;;;;;;;;;;5073546;28;20920;-70
2023/04/27 08:50:56;;;;;;;63.07;5.77;;;;;;;;;;5073347;28;20467;-70
2023/04/27 08:53:24;;;;;;;63.60;6.40;;;;;;;;;;5073553;28;20443;-69
2023/04/27 08:55:51;;;;;;;61.23;5.67;;;;;;;;;;5073359;28;20832;-70
2023/04/27 08:58:18;;;;;;;62.67;5.67;;;;;;;;;;5073255;28;20485;-70
2023/04/27 09:00:46;;;;;;;61.27;5.60;;;;;;;;;;5073335;28;20463;-69
2023/04/27 09:03:22;;;;;;;60.47;5.17;;;;;;;;;;5073431;28;20608;-69
2023/04/27 09:05:49;;;;;;;62.30;5.60;;;;;;;;;;5073513;28;20965;-69
2023/04/27 09:08:18;;;;;;;62.30;5.10;;;;;;;;;;5073057;28;20921;-69
2023/04/27 09:10:46;;;;;;;63.53;5.57;;;;;;;;;;5072702;28;20479;-70
2023/04/27 09:13:13;;;;;;;61.00;5.43;;;;;;;;;;5073070;28;20451;-70
2023/04/27 09:15:44;;;;;;;60.07;5.77;;;;;;;;;;5073159;28;20447;-70
2023/04/27 09:18:16;;;;;;;61.70;5.90;;;;;;;;;;5072903;28;20483;-69
2023/04/27 09:20:44;;;;;;;60.47;5.27;;;;;;;;;;5072647;28;20471;-71
2023/04/27 09:23:11;;;;;;;61.30;5.47;;;;;;;;;;5072707;28;21039;-72
2023/04/27 09:25:40;;;;;;;60.60;6.00;;;;;;;;;;5072699;28;20451;-70
2023/04/27 09:28:09;;;;;;;61.10;5.30;;;;;;;;;;5072947;28;20445;-70
2023/04/27 09:30:36;;;;;;;61.27;5.30;;;;;;;;;;5072400;28;21049;-70
2023/04/27 09:33:04;;;;;;;59.67;5.27;;;;;;;;;;5072894;28;20443;-70
2023/04/27 09:35:31;;;;;;;59.93;5.17;;;;;;;;;;5072543;28;20947;-69
2023/04/27 09:37:59;;;;;;;64.00;5.10;;;;;;;;;;5072365;28;21010;-70
2023/04/27 09:40:28;;;;;;;60.20;4.70;;;;;;;;;;5072431;28;20471;-69
2023/04/27 09:42:57;;;;;;;60.03;4.40;;;;;;;;;;5072638;28;20827;-69
2023/04/27 09:45:24;;;;;;;61.80;5.00;;;;;;;;;;5072451;28;20454;-70
2023/04/27 09:47:51;;;;;;;59.27;4.80;;;;;;;;;;5072333;28;20448;-69
2023/04/27 09:50:19;;;;;;;61.43;5.57;;;;;;;;;;5071808;28;20486;-69
2023/04/27 09:52:46;;;;;;;59.77;4.70;;;;;;;;;;5072549;28;20455;-70
2023/04/27 09:55:16;;;;;;;60.57;5.10;;;;;;;;;;5072370;28;20447;-70
2023/04/27 09:57:49;;;;;;;61.40;5.27;;;;;;;;;;5072248;28;20482;-69
2023/04/27 10:00:24;;;;;;;60.23;6.10;;;;;;;;;;5071868;28;20477;-70
2023/04/27 10:02:59;;;;;;;60.07;5.63;;;;;;;;;;5072111;28;20447;-68
2023/04/27 10:05:35;;;;;;;60.80;5.60;;;;;;;;;;5072211;28;20451;-69
2023/04/27 10:08:04;;;;;;;62.40;5.10;;;;;;;;;;5072062;28;20439;-69
2023/04/27 10:10:31;;;;;;;60.70;5.40;;;;;;;;;;5071688;28;20478;-69
2023/04/27 10:13:01;;;;;;;59.07;4.87;;;;;;;;;;5071981;28;20443;-69
2023/04/27 10:15:30;;;;;;;61.03;4.97;;;;;;;;;;5071997;28;20449;-69
2023/04/27 10:18:04;;;;;;;59.67;4.77;;;;;;;;;;5071773;28;20990;-69
2023/04/27 10:20:31;;;;;;;60.20;5.07;;;;;;;;;;5071642;28;20479;-69
2023/04/27 10:22:59;;;;;;;59.57;5.00;;;;;;;;;;5071953;28;20447;-70
2023/04/27 10:25:27;;;;;;;62.90;5.20;;;;;;;;;;5071735;28;20524;-70
2023/04/27 10:27:55;;;;;;;58.13;4.50;;;;;;;;;;5071692;28;20448;-70
2023/04/27 10:30:26;;;;;;;62.73;5.27;;;;;;;;;;5071419;28;20472;-70
2023/04/27 10:32:55;;;;;;;61.67;5.53;;;;;;;;;;5071515;28;20520;-70
2023/04/27 10:35:22;;;;;;;59.60;4.93;;;;;;;;;;5071834;28;20443;-71
2023/04/27 10:37:51;;;;;;;61.17;5.10;;;;;;;;;;5071684;28;20510;-70
2023/04/27 10:40:18;;;;;;;61.10;5.07;;;;;;;;;;5071232;28;20825;-68
2023/04/27 10:42:48;;;;;;;60.53;5.27;;;;;;;;;;5071882;28;20462;-69
2023/04/27 10:45:15;;;;;;;60.10;5.17;;;;;;;;;;5071617;28;21039;-69
2023/04/27 10:47:43;;;;;;;60.17;5.60;;;;;;;;;;5071716;28;20534;-69
2023/04/27 10:50:14;;;;;;;63.60;5.50;;;;;;;;;;5070940;28;20467;-69
2023/04/27 10:52:41;;;;;;;62.87;5.77;;;;;;;;;;5071463;28;20505;-69
2023/04/27 10:55:19;;;;;;;60.67;5.20;;;;;;;;;;5071833;28;20448;-70
2023/04/27 10:57:46;;;;;;;59.60;5.00;;;;;;;;;;5071744;28;20819;-70
2023/04/27 11:00:16;;;;;;;59.60;5.13;;;;;;;;;;5071253;28;20475;-70
2023/04/27 11:02:43;;;;;;;61.30;5.03;;;;;;;;;;5071501;28;20450;-68
2023/04/27 11:05:18;;;;;;;62.53;5.73;;;;;;;;;;5071603;28;20463;-69
2023/04/27 11:07:46;;;;;;;60.10;4.80;;;;;;;;;;5071548;28;20927;-69
2023/04/27 11:10:15;;;;;;;62.23;5.10;;;;;;;;;;5071253;28;20455;-69
2023/04/27 11:12:42;;;;;;;58.80;4.67;;;;;;;;;;5071482;28;20947;-71
2023/04/27 11:15:10;;;;;;;61.00;5.10;;;;;;;;;;5071607;28;20446;-70
2023/04/27 11:17:37;;;;;;;60.17;5.10;;;;;;;;;;5071374;28;20809;-68
2023/04/27 11:20:06;;;;;;;60.73;4.90;;;;;;;;;;5070831;28;20487;-69
2023/04/27 11:22:34;;;;;;;58.80;5.00;;;;;;;;;;5071196;28;20446;-68
2023/04/27 11:25:02;;;;;;;60.97;5.10;;;;;;;;;;5071387;28;20470;-69
2023/04/27 11:27:37;;;;;;;61.10;5.10;;;;;;;;;;5071252;28;20448;-69
2023/04/27 11:30:06;;;;;;;59.27;4.60;;;;;;;;;;5071404;28;20520;-70
2023/04/27 11:32:33;;;;;;;61.37;5.10;;;;;;;;;;5071388;28;20443;-68
2023/04/27 11:35:00;;;;;;;60.40;5.00;;;;;;;;;;5071248;28;20919;-70
2023/04/27 11:37:28;;;;;;;61.23;5.77;;;;;;;;;;5070992;28;20448;-69
2023/04/27 11:40:00;;;;;;;60.93;5.10;;;;;;;;;;5070794;28;20483;-68
2023/04/27 11:42:28;;;;;;;59.57;5.27;;;;;;;;;;5071145;28;20451;-68
2023/04/27 11:44:56;;;;;;;59.90;5.20;;;;;;;;;;5072123;28;20533;-69
2023/04/27 11:47:24;;;;;;;60.27;5.20;;;;;;;;;;5074930;28;20451;-68
2023/04/27 11:49:52;;;;;;;67.70;5.67;;;;;;;;;;5074250;28;21001;-69
2023/04/27 11:52:19;;;;;;;61.37;5.50;;;;;;;;;;5074736;28;20450;-69
2023/04/27 11:54:51;;;;;;;59.10;4.87;;;;;;;;;;5074772;28;20446;-69
2023/04/27 11:57:25;;;;;;;62.03;6.50;;;;;;;;;;5074411;28;20447;-69
2023/04/27 11:59:52;;;;;;;59.40;4.93;;;;;;;;;;5073967;28;20487;-70
2023/04/27 12:02:20;;;;;;;59.70;5.50;;;;;;;;;;5074478;28;20453;-70
2023/04/27 12:04:48;;;;;;;60.63;6.50;;;;;;;;;;5074831;28;20448;-70
2023/04/27 12:07:15;;;;;;;64.67;6.00;;;;;;;;;;5074662;28;20443;-74
2023/04/27 12:09:42;;;;;;;62.90;6.93;;;;;;;;;;5073798;28;21109;-69
2023/04/27 12:12:09;;;;;;;63.40;5.70;;;;;;;;;;5074544;28;20451;-70
2023/04/27 12:14:38;;;;;;;61.27;6.57;;;;;;;;;;5074428;28;20447;-71
2023/04/27 12:17:05;;;;;;;62.30;5.87;;;;;;;;;;5074674;28;20451;-69
2023/04/27 12:19:32;;;;;;;60.77;6.10;;;;;;;;;;5073788;28;20459;-70
2023/04/27 12:22:00;;;;;;;62.90;6.37;;;;;;;;;;5074026;28;20452;-70
2023/04/27 12:24:27;;;;;;;58.53;4.83;;;;;;;;;;5074059;28;20468;-70
2023/04/27 12:26:54;;;;;;;59.90;5.30;;;;;;;;;;5074196;28;20491;-70
2023/04/27 12:29:21;;;;;;;60.47;5.43;;;;;;;;;;5073350;28;21065;-70
2023/04/27 12:31:50;;;;;;;59.07;5.80;;;;;;;;;;5073889;28;20451;-70
2023/04/27 12:34:17;;;;;;;60.80;6.03;;;;;;;;;;5073931;28;20470;-69
2023/04/27 12:36:44;;;;;;;60.10;4.90;;;;;;;;;;5073946;28;20499;-70
2023/04/27 12:39:15;;;;;;;58.70;5.30;;;;;;;;;;5073343;28;20563;-71
2023/04/27 12:41:43;;;;;;;58.47;5.70;;;;;;;;;;5073859;28;20447;-72
2023/04/27 12:44:10;;;;;;;58.57;5.40;;;;;;;;;;5073652;28;20843;-71
2023/04/27 12:46:38;;;;;;;60.67;5.93;;;;;;;;;;5073787;28;20455;-71
2023/04/27 12:49:06;;;;;;;59.13;5.47;;;;;;;;;;5073170;28;20487;-72
2023/04/27 12:51:34;;;;;;;59.30;5.50;;;;;;;;;;5073437;28;20505;-70
2023/04/27 12:54:01;;;;;;;64.47;6.30;;;;;;;;;;5073613;28;20983;-71
2023/04/27 12:56:28;;;;;;;61.47;5.23;;;;;;;;;;5073060;28;21024;-71
2023/04/27 12:58:56;;;;;;;59.60;5.70;;;;;;;;;;5073346;28;20466;-69
2023/04/27 13:01:25;;;;;;;61.77;6.10;;;;;;;;;;5073389;28;20483;-70
2023/04/27 13:03:52;;;;;;;65.80;7.50;;;;;;;;;;5073195;28;20455;-70
2023/04/27 13:06:21;;;;;;;59.80;5.57;;;;;;;;;;5073518;28;20447;-71
2023/04/27 13:08:48;;;;;;;63.93;5.80;;;;;;;;;;5072805;28;20514;-70
2023/04/27 13:11:16;;;;;;;61.50;5.80;;;;;;;;;;5073364;28;20825;-71
2023/04/27 13:13:44;;;;;;;61.80;6.13;;;;;;;;;;5073191;28;20458;-71
2023/04/27 13:16:11;;;;;;;60.00;5.83;;;;;;;;;;5073265;28;20911;-70
2023/04/27 13:18:39;;;;;;;60.83;5.93;;;;;;;;;;5072455;28;20444;-71
2023/04/27 13:21:06;;;;;;;61.60;5.77;;;;;;;;;;5072955;28;20486;-70
2023/04/27 13:23:34;;;;;;;60.97;6.17;;;;;;;;;;5072959;28;20451;-71
2023/04/27 13:26:01;;;;;;;59.30;4.87;;;;;;;;;;5072942;28;20508;-71
2023/04/27 13:28:28;;;;;;;59.67;5.50;;;;;;;;;;5072503;28;20952;-70
2023/04/27 13:30:56;;;;;;;61.37;5.50;;;;;;;;;;5072486;28;20558;-71
2023/04/27 13:33:23;;;;;;;62.70;5.57;;;;;;;;;;5072673;28;20486;-71
2023/04/27 13:35:50;;;;;;;59.77;5.80;;;;;;;;;;5072767;28;20977;-71
2023/04/27 13:38:18;;;;;;;60.00;5.20;;;;;;;;;;5072633;28;20447;-71
2023/04/27 13:40:46;;;;;;;62.73;6.00;;;;;;;;;;5072457;28;20467;-71
2023/04/27 13:43:13;;;;;;;62.50;6.83;;;;;;;;;;5072771;28;20470;-71
2023/04/27 13:45:41;;;;;;;62.30;6.13;;;;;;;;;;5072519;28;20450;-71
2023/04/27 13:48:08;;;;;;;59.90;5.53;;;;;;;;;;5072565;28;20538;-71
2023/04/27 13:50:35;;;;;;;61.93;6.10;;;;;;;;;;5072000;28;20491;-70
2023/04/27 13:53:02;;;;;;;60.67;6.17;;;;;;;;;;5072429;28;20452;-71
2023/04/27 13:55:29;;;;;;;62.50;5.73;;;;;;;;;;5072436;28;20458;-71
2023/04/27 13:57:58;;;;;;;60.97;5.10;;;;;;;;;;5072187;28;20944;-71
2023/04/27 14:00:27;;;;;;;59.10;4.87;;;;;;;;;;5072038;28;20474;-70
2023/04/27 14:02:54;;;;;;;60.17;5.77;;;;;;;;;;5072087;28;20539;-71
2023/04/27 14:05:21;;;;;;;61.17;5.60;;;;;;;;;;5072323;28;20447;-71
2023/04/27 14:07:48;;;;;;;62.10;5.93;;;;;;;;;;5071549;28;20451;-71
2023/04/27 14:10:16;;;;;;;59.00;4.80;;;;;;;;;;5071636;28;20491;-71
2023/04/27 14:12:43;;;;;;;60.47;6.03;;;;;;;;;;5071924;28;20451;-71
2023/04/27 14:15:12;;;;;;;60.70;5.87;;;;;;;;;;5072289;28;20500;-71
2023/04/27 14:17:39;;;;;;;60.40;5.40;;;;;;;;;;5071917;28;20462;-71
2023/04/27 14:20:07;;;;;;;63.83;6.03;;;;;;;;;;5071891;28;20460;-71
2023/04/27 14:22:36;;;;;;;61.17;5.83;;;;;;;;;;5071909;28;20458;-71
2023/04/27 14:25:03;;;;;;;60.50;5.07;;;;;;;;;;5071822;28;20459;-71
2023/04/27 14:27:31;;;;;;;59.47;5.20;;;;;;;;;;5072107;28;20478;-71
2023/04/27 14:29:58;;;;;;;60.17;5.30;;;;;;;;;;5071642;28;20491;-70
2023/04/27 14:32:27;;;;;;;60.93;5.27;;;;;;;;;;5071907;28;20447;-71
2023/04/27 14:34:54;;;;;;;58.73;5.20;;;;;;;;;;5071873;28;20879;-70